KBEC/BEC METAR and TAF weather

Enter ICAO airport designator
Station Type Date Time Source
KBEC METAR 2018/01/22 11:35 UTC NOAA

KBEC 221135Z AUTO 25014G19KT 10SM OVC021 03/M01 A2950 RMK AO2 T00261015


Station Type Date Time Source
KBEC Decoded METAR 2018/01/22 11:35 UTC NOAA

Station name not available
Jan 22, 2018 - 06:35 AM EST / 2018.01.22 1135 UTC
Wind: from the WSW (250 degrees) at 16 MPH (14 KT) gusting to 22 MPH (19 KT):0
Visibility: 10 mile(s):0
Sky conditions: overcast
Temperature: 36.7 F (2.6 C)
Dew Point: 29.3 F (-1.5 C)
Relative Humidity: 74%
Pressure (altimeter): 29.5 in. Hg (998 hPa)
ob: KBEC 221135Z AUTO 25014G19KT 10SM OVC021 03/M01 A2950 RMK AO2 T00261015
cycle: 11

Station Type Date Time Source
KBEC TAF UTC NOAA

Error!


Example: see airport list